sensor_id;sensor_type;location;lat;lon;timestamp;pressure;altitude;pressure_sealevel;temperature;humidity
33454;BME280;39400;49.744;7.012;2023-05-10T00:00:20;95346.00;;;10.90;100.00
33454;BME280;39400;49.744;7.012;2023-05-10T00:02:45;95349.72;;;11.07;100.00
33454;BME280;39400;49.744;7.012;2023-05-10T00:05:11;95359.44;;;10.84;100.00
33454;BME280;39400;49.744;7.012;2023-05-10T00:07:36;95343.66;;;10.88;100.00
33454;BME280;39400;49.744;7.012;2023-05-10T00:10:01;95353.97;;;10.81;100.00
33454;BME280;39400;49.744;7.012;2023-05-10T00:12:28;95347.53;;;10.91;100.00
33454;BME280;39400;49.744;7.012;2023-05-10T00:14:53;95355.09;;;10.83;100.00
33454;BME280;39400;49.744;7.012;2023-05-10T00:17:18;95354.75;;;10.81;100.00
33454;BME280;39400;49.744;7.012;2023-05-10T00:19:44;95351.63;;;10.79;100.00
33454;BME280;39400;49.744;7.012;2023-05-10T00:22:09;95342.84;;;10.91;100.00
33454;BME280;39400;49.744;7.012;2023-05-10T00:24:34;95349.25;;;10.81;100.00
33454;BME280;39400;49.744;7.012;2023-05-10T00:26:59;95342.94;;;10.84;100.00
33454;BME280;39400;49.744;7.012;2023-05-10T00:29:25;95346.41;;;10.88;100.00
33454;BME280;39400;49.744;7.012;2023-05-10T00:31:50;95340.44;;;10.93;100.00
33454;BME280;39400;49.744;7.012;2023-05-10T00:34:15;95344.69;;;11.02;100.00
33454;BME280;39400;49.744;7.012;2023-05-10T00:36:41;95350.28;;;10.91;100.00
33454;BME280;39400;49.744;7.012;2023-05-10T00:39:06;95350.19;;;11.02;100.00
33454;BME280;39400;49.744;7.012;2023-05-10T00:41:31;95338.00;;;11.03;100.00
33454;BME280;39400;49.744;7.012;2023-05-10T00:43:58;95338.16;;;10.88;100.00
33454;BME280;39400;49.744;7.012;2023-05-10T00:46:24;95340.53;;;10.86;100.00
33454;BME280;39400;49.744;7.012;2023-05-10T00:48:50;95336.53;;;10.94;100.00
33454;BME280;39400;49.744;7.012;2023-05-10T00:51:15;95334.34;;;10.79;100.00
33454;BME280;39400;49.744;7.012;2023-05-10T00:53:40;95335.13;;;10.79;100.00
33454;BME280;39400;49.744;7.012;2023-05-10T00:56:06;95335.81;;;10.87;100.00
33454;BME280;39400;49.744;7.012;2023-05-10T00:58:31;95338.25;;;10.81;100.00
33454;BME280;39400;49.744;7.012;2023-05-10T01:00:57;95344.56;;;10.78;100.00
33454;BME280;39400;49.744;7.012;2023-05-10T01:03:24;95341.28;;;10.90;100.00
33454;BME280;39400;49.744;7.012;2023-05-10T01:05:50;95346.34;;;10.95;100.00
33454;BME280;39400;49.744;7.012;2023-05-10T01:08:15;95345.94;;;10.93;100.00
33454;BME280;39400;49.744;7.012;2023-05-10T01:10:41;95343.03;;;10.74;100.00
33454;BME280;39400;49.744;7.012;2023-05-10T01:13:07;95347.53;;;10.91;100.00
33454;BME280;39400;49.744;7.012;2023-05-10T01:15:32;95346.16;;;10.76;100.00
33454;BME280;39400;49.744;7.012;2023-05-10T01:17:58;95346.13;;;10.79;100.00
33454;BME280;39400;49.744;7.012;2023-05-10T01:20:24;95344.88;;;10.84;100.00
33454;BME280;39400;49.744;7.012;2023-05-10T01:33:59;95347.72;;;10.77;100.00
33454;BME280;39400;49.744;7.012;2023-05-10T01:36:37;95342.16;;;10.80;100.00
33454;BME280;39400;49.744;7.012;2023-05-10T01:41:41;95346.19;;;10.72;100.00
33454;BME280;39400;49.744;7.012;2023-05-10T01:44:33;95349.75;;;10.69;100.00
33454;BME280;39400;49.744;7.012;2023-05-10T01:47:15;95345.59;;;10.54;100.00
33454;BME280;39400;49.744;7.012;2023-05-10T01:49:47;95339.34;;;10.53;100.00
33454;BME280;39400;49.744;7.012;2023-05-10T01:52:17;95343.34;;;10.41;100.00
33454;BME280;39400;49.744;7.012;2023-05-10T01:54:49;95336.75;;;10.35;100.00
33454;BME280;39400;49.744;7.012;2023-05-10T01:57:19;95346.25;;;10.27;100.00
33454;BME280;39400;49.744;7.012;2023-05-10T01:59:46;95354.47;;;10.27;100.00
33454;BME280;39400;49.744;7.012;2023-05-10T02:02:15;95361.22;;;10.19;100.00
33454;BME280;39400;49.744;7.012;2023-05-10T02:04:43;95358.53;;;10.12;100.00
33454;BME280;39400;49.744;7.012;2023-05-10T02:07:10;95350.53;;;10.28;100.00
33454;BME280;39400;49.744;7.012;2023-05-10T02:09:36;95349.69;;;10.35;100.00
33454;BME280;39400;49.744;7.012;2023-05-10T02:12:05;95353.78;;;10.16;100.00
33454;BME280;39400;49.744;7.012;2023-05-10T02:14:34;95354.19;;;10.11;100.00
33454;BME280;39400;49.744;7.012;2023-05-10T02:17:02;95358.88;;;10.14;100.00
33454;BME280;39400;49.744;7.012;2023-05-10T02:19:28;95362.31;;;10.32;100.00
33454;BME280;39400;49.744;7.012;2023-05-10T02:21:57;95356.47;;;10.27;100.00
33454;BME280;39400;49.744;7.012;2023-05-10T02:24:25;95361.19;;;10.22;100.00
33454;BME280;39400;49.744;7.012;2023-05-10T02:26:53;95362.44;;;10.11;100.00
33454;BME280;39400;49.744;7.012;2023-05-10T02:29:20;95363.94;;;10.19;100.00
33454;BME280;39400;49.744;7.012;2023-05-10T02:31:47;95359.16;;;10.30;100.00
33454;BME280;39400;49.744;7.012;2023-05-10T02:34:13;95368.66;;;10.22;100.00
33454;BME280;39400;49.744;7.012;2023-05-10T02:36:39;95371.06;;;10.13;100.00
33454;BME280;39400;49.744;7.012;2023-05-10T02:39:06;95373.41;;;10.14;100.00
33454;BME280;39400;49.744;7.012;2023-05-10T02:41:32;95369.06;;;10.17;100.00
33454;BME280;39400;49.744;7.012;2023-05-10T02:44:01;95370.69;;;10.11;100.00
33454;BME280;39400;49.744;7.012;2023-05-10T02:46:27;95378.84;;;10.18;100.00
33454;BME280;39400;49.744;7.012;2023-05-10T02:48:55;95375.88;;;10.02;100.00
33454;BME280;39400;49.744;7.012;2023-05-10T02:51:24;95376.66;;;10.02;100.00
33454;BME280;39400;49.744;7.012;2023-05-10T02:53:51;95371.94;;;9.99;100.00
33454;BME280;39400;49.744;7.012;2023-05-10T02:56:29;95371.94;;;9.99;100.00
33454;BME280;39400;49.744;7.012;2023-05-10T02:58:56;95369.56;;;10.05;100.00
33454;BME280;39400;49.744;7.012;2023-05-10T03:01:22;95378.22;;;9.99;100.00
33454;BME280;39400;49.744;7.012;2023-05-10T03:03:47;95374.22;;;10.08;100.00
33454;BME280;39400;49.744;7.012;2023-05-10T03:06:13;95368.53;;;10.36;100.00
33454;BME280;39400;49.744;7.012;2023-05-10T03:08:38;95375.34;;;10.17;100.00
33454;BME280;39400;49.744;7.012;2023-05-10T03:11:28;95373.22;;;10.39;100.00
33454;BME280;39400;49.744;7.012;2023-05-10T03:14:24;95376.38;;;10.38;100.00
33454;BME280;39400;49.744;7.012;2023-05-10T03:16:58;95380.59;;;10.50;100.00
33454;BME280;39400;49.744;7.012;2023-05-10T03:22:08;95382.63;;;10.38;100.00
33454;BME280;39400;49.744;7.012;2023-05-10T03:24:36;95375.44;;;10.55;100.00
33454;BME280;39400;49.744;7.012;2023-05-10T03:27:04;95386.53;;;10.44;100.00
33454;BME280;39400;49.744;7.012;2023-05-10T03:29:31;95384.09;;;10.54;100.00
33454;BME280;39400;49.744;7.012;2023-05-10T03:31:58;95379.34;;;10.58;100.00
33454;BME280;39400;49.744;7.012;2023-05-10T03:34:24;95390.34;;;10.58;100.00
33454;BME280;39400;49.744;7.012;2023-05-10T03:36:51;95380.22;;;10.47;100.00
33454;BME280;39400;49.744;7.012;2023-05-10T03:39:16;95385.66;;;10.55;100.00
33454;BME280;39400;49.744;7.012;2023-05-10T03:41:47;95380.63;;;10.84;100.00
33454;BME280;39400;49.744;7.012;2023-05-10T03:44:13;95378.53;;;10.61;100.00
33454;BME280;39400;49.744;7.012;2023-05-10T03:46:38;95383.88;;;10.75;100.00
33454;BME280;39400;49.744;7.012;2023-05-10T03:49:03;95385.56;;;10.62;100.00
33454;BME280;39400;49.744;7.012;2023-05-10T03:51:29;95389.47;;;10.64;100.00
33454;BME280;39400;49.744;7.012;2023-05-10T03:53:54;95387.78;;;10.78;100.00
33454;BME280;39400;49.744;7.012;2023-05-10T03:56:20;95381.28;;;10.61;100.00
33454;BME280;39400;49.744;7.012;2023-05-10T03:58:45;95396.28;;;10.90;100.00
33454;BME280;39400;49.744;7.012;2023-05-10T04:01:10;95381.22;;;10.64;100.00
33454;BME280;39400;49.744;7.012;2023-05-10T04:03:36;95395.22;;;10.77;100.00
33454;BME280;39400;49.744;7.012;2023-05-10T04:06:02;95394.00;;;10.85;100.00
33454;BME280;39400;49.744;7.012;2023-05-10T04:08:27;95389.34;;;10.79;100.00
33454;BME280;39400;49.744;7.012;2023-05-10T04:10:53;95390.56;;;10.74;100.00
33454;BME280;39400;49.744;7.012;2023-05-10T04:13:18;95395.31;;;10.70;100.00
33454;BME280;39400;49.744;7.012;2023-05-10T04:15:43;95395.22;;;10.81;100.00
33454;BME280;39400;49.744;7.012;2023-05-10T04:18:08;95400.38;;;10.75;100.00
33454;BME280;39400;49.744;7.012;2023-05-10T04:20:34;95397.25;;;10.73;100.00
33454;BME280;39400;49.744;7.012;2023-05-10T04:22:59;95391.97;;;10.89;100.00
33454;BME280;39400;49.744;7.012;2023-05-10T04:25:25;95387.75;;;10.81;100.00
33454;BME280;39400;49.744;7.012;2023-05-10T04:27:50;95387.75;;;10.81;100.00
33454;BME280;39400;49.744;7.012;2023-05-10T04:30:15;95399.53;;;10.82;100.00
33454;BME280;39400;49.744;7.012;2023-05-10T04:32:41;95396.28;;;10.90;100.00
33454;BME280;39400;49.744;7.012;2023-05-10T04:35:06;95407.81;;;10.78;100.00
33454;BME280;39400;49.744;7.012;2023-05-10T04:37:32;95399.56;;;10.78;100.00
33454;BME280;39400;49.744;7.012;2023-05-10T04:39:57;95408.91;;;10.88;100.00
33454;BME280;39400;49.744;7.012;2023-05-10T04:42:22;95411.34;;;10.79;100.00
33454;BME280;39400;49.744;7.012;2023-05-10T04:44:48;95414.47;;;10.77;100.00
33454;BME280;39400;49.744;7.012;2023-05-10T04:47:13;95418.00;;;10.81;100.00
33454;BME280;39400;49.744;7.012;2023-05-10T04:49:38;95416.00;;;10.85;100.00
33454;BME280;39400;49.744;7.012;2023-05-10T04:52:04;95417.56;;;10.83;100.00
33454;BME280;39400;49.744;7.012;2023-05-10T04:54:29;95422.38;;;10.75;100.00
33454;BME280;39400;49.744;7.012;2023-05-10T04:56:54;95422.72;;;10.81;100.00
33454;BME280;39400;49.744;7.012;2023-05-10T04:59:20;95422.34;;;10.79;100.00
33454;BME280;39400;49.744;7.012;2023-05-10T05:01:45;95423.88;;;10.80;100.00
33454;BME280;39400;49.744;7.012;2023-05-10T05:04:10;95419.06;;;10.91;100.00
33454;BME280;39400;49.744;7.012;2023-05-10T05:06:36;95424.41;;;11.09;100.00
33454;BME280;39400;49.744;7.012;2023-05-10T05:09:01;95422.06;;;11.04;100.00
33454;BME280;39400;49.744;7.012;2023-05-10T05:11:26;95420.81;;;11.12;100.00
33454;BME280;39400;49.744;7.012;2023-05-10T05:13:52;95427.41;;;11.18;100.00
33454;BME280;39400;49.744;7.012;2023-05-10T05:16:17;95425.13;;;11.13;100.00
33454;BME280;39400;49.744;7.012;2023-05-10T05:18:42;95444.66;;;11.22;100.00
33454;BME280;39400;49.744;7.012;2023-05-10T05:21:18;95437.59;;;11.21;100.00
33454;BME280;39400;49.744;7.012;2023-05-10T05:23:43;95434.34;;;11.33;100.00
33454;BME280;39400;49.744;7.012;2023-05-10T05:26:09;95445.25;;;11.40;100.00
33454;BME280;39400;49.744;7.012;2023-05-10T05:28:34;95441.78;;;11.36;100.00
33454;BME280;39400;49.744;7.012;2023-05-10T05:30:59;95449.03;;;11.54;100.00
33454;BME280;39400;49.744;7.012;2023-05-10T05:33:25;95439.63;;;11.51;100.00
33454;BME280;39400;49.744;7.012;2023-05-10T05:35:50;95449.31;;;11.63;100.00
33454;BME280;39400;49.744;7.012;2023-05-10T05:38:15;95452.00;;;11.66;100.00
33454;BME280;39400;49.744;7.012;2023-05-10T05:40:40;95455.97;;;11.65;100.00
33454;BME280;39400;49.744;7.012;2023-05-10T05:43:06;95458.19;;;11.78;100.00
33454;BME280;39400;49.744;7.012;2023-05-10T05:45:31;95449.69;;;11.65;100.00
33454;BME280;39400;49.744;7.012;2023-05-10T05:47:56;95440.91;;;11.74;100.00
33454;BME280;39400;49.744;7.012;2023-05-10T05:50:22;95458.19;;;11.78;100.00
33454;BME280;39400;49.744;7.012;2023-05-10T05:52:47;95457.25;;;11.88;100.00
33454;BME280;39400;49.744;7.012;2023-05-10T05:55:12;95462.06;;;11.80;100.00
33454;BME280;39400;49.744;7.012;2023-05-10T05:57:38;95464.47;;;11.78;100.00
33454;BME280;39400;49.744;7.012;2023-05-10T06:00:03;95462.09;;;11.77;100.00
33454;BME280;39400;49.744;7.012;2023-05-10T06:02:37;95462.03;;;11.84;100.00
33454;BME280;39400;49.744;7.012;2023-05-10T06:05:03;95464.56;;;11.71;100.00
33454;BME280;39400;49.744;7.012;2023-05-10T06:07:28;95462.91;;;11.47;100.00
33454;BME280;39400;49.744;7.012;2023-05-10T06:09:54;95470.59;;;11.59;100.00
33454;BME280;39400;49.744;7.012;2023-05-10T06:12:19;95476.94;;;11.56;100.00
33454;BME280;39400;49.744;7.012;2023-05-10T06:14:44;95470.31;;;11.50;100.00
33454;BME280;39400;49.744;7.012;2023-05-10T06:17:09;95472.06;;;11.36;100.00
33454;BME280;39400;49.744;7.012;2023-05-10T06:19:35;95477.19;;;11.34;100.00
33454;BME280;39400;49.744;7.012;2023-05-10T06:22:00;95476.06;;;11.28;100.00
33454;BME280;39400;49.744;7.012;2023-05-10T06:24:25;95494.06;;;11.36;100.00
33454;BME280;39400;49.744;7.012;2023-05-10T06:26:51;95481.47;;;11.35;100.00
33454;BME280;39400;49.744;7.012;2023-05-10T06:29:16;95491.09;;;11.20;100.00
33454;BME280;39400;49.744;7.012;2023-05-10T06:31:41;95486.25;;;11.31;100.00
33454;BME280;39400;49.744;7.012;2023-05-10T06:34:06;95488.50;;;11.43;100.00
33454;BME280;39400;49.744;7.012;2023-05-10T06:36:32;95492.28;;;11.53;100.00
33454;BME280;39400;49.744;7.012;2023-05-10T06:38:57;95486.75;;;11.57;100.00
33454;BME280;39400;49.744;7.012;2023-05-10T06:41:22;95493.50;;;11.86;100.00
33454;BME280;39400;49.744;7.012;2023-05-10T06:43:48;95497.47;;;11.82;100.00
33454;BME280;39400;49.744;7.012;2023-05-10T06:46:13;95496.78;;;11.74;100.00
33454;BME280;39400;49.744;7.012;2023-05-10T06:48:38;95503.56;;;11.66;100.00
33454;BME280;39400;49.744;7.012;2023-05-10T06:51:03;95506.59;;;11.75;100.00
33454;BME280;39400;49.744;7.012;2023-05-10T06:53:29;95498.22;;;11.52;100.00
33454;BME280;39400;49.744;7.012;2023-05-10T06:55:54;95495.09;;;11.50;100.00
33454;BME280;39400;49.744;7.012;2023-05-10T06:58:19;95505.78;;;11.44;100.00
33454;BME280;39400;49.744;7.012;2023-05-10T07:00:45;95504.84;;;11.58;100.00
33454;BME280;39400;49.744;7.012;2023-05-10T07:03:10;95504.50;;;11.52;100.00
33454;BME280;39400;49.744;7.012;2023-05-10T07:05:35;95504.25;;;11.39;100.00
33454;BME280;39400;49.744;7.012;2023-05-10T07:08:01;95508.13;;;11.46;100.00
33454;BME280;39400;49.744;7.012;2023-05-10T07:10:26;95509.00;;;11.35;100.00
33454;BME280;39400;49.744;7.012;2023-05-10T07:12:52;95510.13;;;11.41;100.00
33454;BME280;39400;49.744;7.012;2023-05-10T07:15:17;95505.91;;;11.33;100.00
33454;BME280;39400;49.744;7.012;2023-05-10T07:17:42;95509.03;;;11.32;100.00
33454;BME280;39400;49.744;7.012;2023-05-10T07:20:08;95513.50;;;11.18;100.00
33454;BME280;39400;49.744;7.012;2023-05-10T07:22:33;95520.50;;;11.27;100.00
33454;BME280;39400;49.744;7.012;2023-05-10T07:24:59;95527.03;;;11.43;100.00
33454;BME280;39400;49.744;7.012;2023-05-10T07:27:24;95519.19;;;11.38;100.00
33454;BME280;39400;49.744;7.012;2023-05-10T07:29:50;95524.56;;;11.53;100.00
33454;BME280;39400;49.744;7.012;2023-05-10T07:32:15;95529.25;;;11.56;100.00
33454;BME280;39400;49.744;7.012;2023-05-10T07:34:40;95523.00;;;11.52;100.00
33454;BME280;39400;49.744;7.012;2023-05-10T07:37:06;95530.06;;;11.53;100.00
33454;BME280;39400;49.744;7.012;2023-05-10T07:39:31;95525.44;;;11.42;100.00
33454;BME280;39400;49.744;7.012;2023-05-10T07:41:56;95533.31;;;11.44;100.00
33454;BME280;39400;49.744;7.012;2023-05-10T07:44:22;95539.00;;;11.26;100.00
33454;BME280;39400;49.744;7.012;2023-05-10T07:46:47;95544.66;;;11.08;100.00
33454;BME280;39400;49.744;7.012;2023-05-10T07:49:13;95547.06;;;11.03;100.00
33454;BME280;39400;49.744;7.012;2023-05-10T07:51:38;95548.75;;;10.89;100.00
33454;BME280;39400;49.744;7.012;2023-05-10T07:54:03;95555.56;;;10.74;100.00
33454;BME280;39400;49.744;7.012;2023-05-10T07:56:30;95556.78;;;10.66;100.00
33454;BME280;39400;49.744;7.012;2023-05-10T07:58:56;95553.66;;;10.64;100.00
33454;BME280;39400;49.744;7.012;2023-05-10T08:01:22;95553.66;;;10.64;100.00
33454;BME280;39400;49.744;7.012;2023-05-10T08:03:48;95562.31;;;10.62;100.00
33454;BME280;39400;49.744;7.012;2023-05-10T08:06:14;95564.69;;;10.60;100.00
33454;BME280;39400;49.744;7.012;2023-05-10T08:08:40;95558.78;;;10.62;100.00
33454;BME280;39400;49.744;7.012;2023-05-10T08:11:05;95566.13;;;10.79;100.00
33454;BME280;39400;49.744;7.012;2023-05-10T08:13:30;95566.88;;;10.83;100.00
33454;BME280;39400;49.744;7.012;2023-05-10T08:15:55;95577.34;;;11.03;100.00
33454;BME280;39400;49.744;7.012;2023-05-10T08:18:21;95562.13;;;10.84;100.00
33454;BME280;39400;49.744;7.012;2023-05-10T08:20:46;95567.66;;;10.80;100.00
33454;BME280;39400;49.744;7.012;2023-05-10T08:23:12;95573.19;;;10.77;100.00
33454;BME280;39400;49.744;7.012;2023-05-10T08:25:37;95557.41;;;10.88;100.00
33454;BME280;39400;49.744;7.012;2023-05-10T08:28:03;95565.59;;;10.99;100.00
33454;BME280;39400;49.744;7.012;2023-05-10T08:30:28;95571.06;;;11.02;100.00
33454;BME280;39400;49.744;7.012;2023-05-10T08:32:53;95572.28;;;10.94;100.00
33454;BME280;39400;49.744;7.012;2023-05-10T08:35:19;95572.19;;;11.05;100.00
33454;BME280;39400;49.744;7.012;2023-05-10T08:37:44;95584.47;;;10.93;100.00
33454;BME280;39400;49.744;7.012;2023-05-10T08:40:11;95574.63;;;10.95;100.00
33454;BME280;39400;49.744;7.012;2023-05-10T08:42:39;95576.94;;;11.01;100.00
33454;BME280;39400;49.744;7.012;2023-05-10T08:45:07;95575.13;;;11.28;100.00
33454;BME280;39400;49.744;7.012;2023-05-10T08:47:33;95575.75;;;11.47;100.00
33454;BME280;39400;49.744;7.012;2023-05-10T08:50:02;95574.50;;;11.55;100.00
33454;BME280;39400;49.744;7.012;2023-05-10T08:52:28;95577.34;;;11.85;100.00
33454;BME280;39400;49.744;7.012;2023-05-10T08:54:55;95572.19;;;11.87;100.00
33454;BME280;39400;49.744;7.012;2023-05-10T08:57:20;95575.41;;;12.17;100.00
33454;BME280;39400;49.744;7.012;2023-05-10T08:59:46;95574.69;;;12.40;100.00
33454;BME280;39400;49.744;7.012;2023-05-10T09:02:12;95573.94;;;12.66;100.00
33454;BME280;39400;49.744;7.012;2023-05-10T09:04:38;95575.97;;;12.62;100.00
33454;BME280;39400;49.744;7.012;2023-05-10T09:07:04;95572.88;;;12.56;100.00
33454;BME280;39400;49.744;7.012;2023-05-10T09:09:29;95576.16;;;12.48;100.00
33454;BME280;39400;49.744;7.012;2023-05-10T09:11:56;95577.00;;;12.45;100.00
33454;BME280;39400;49.744;7.012;2023-05-10T09:14:23;95587.50;;;12.26;100.00
33454;BME280;39400;49.744;7.012;2023-05-10T09:16:48;95589.13;;;12.20;100.00
33454;BME280;39400;49.744;7.012;2023-05-10T09:19:14;95594.91;;;11.99;100.00
33454;BME280;39400;49.744;7.012;2023-05-10T09:21:39;95590.22;;;11.96;100.00
33454;BME280;39400;49.744;7.012;2023-05-10T09:24:06;95595.03;;;11.84;100.00
33454;BME280;39400;49.744;7.012;2023-05-10T09:26:32;95591.06;;;11.89;100.00
33454;BME280;39400;49.744;7.012;2023-05-10T09:28:58;95605.38;;;11.73;100.00
33454;BME280;39400;49.744;7.012;2023-05-10T09:31:43;95610.97;;;11.66;100.00
33454;BME280;39400;49.744;7.012;2023-05-10T09:34:09;95611.78;;;11.63;100.00
33454;BME280;39400;49.744;7.012;2023-05-10T09:36:34;95605.97;;;11.54;100.00
33454;BME280;39400;49.744;7.012;2023-05-10T09:38:59;95606.34;;;11.56;100.00
33454;BME280;39400;49.744;7.012;2023-05-10T09:41:25;95608.69;;;11.57;100.00
33454;BME280;39400;49.744;7.012;2023-05-10T09:43:55;95613.09;;;11.48;100.00
33454;BME280;39400;49.744;7.012;2023-05-10T09:46:21;95620.94;;;11.49;100.00
33454;BME280;39400;49.744;7.012;2023-05-10T09:48:47;95626.84;;;11.51;100.00
33454;BME280;39400;49.744;7.012;2023-05-10T09:51:24;95620.22;;;11.45;100.00
33454;BME280;39400;49.744;7.012;2023-05-10T09:54:09;95618.44;;;11.65;100.00
33454;BME280;39400;49.744;7.012;2023-05-10T09:56:38;95622.50;;;11.54;100.00
33454;BME280;39400;49.744;7.012;2023-05-10T09:59:04;95624.41;;;11.57;100.00
33454;BME280;39400;49.744;7.012;2023-05-10T10:01:30;95626.06;;;11.51;100.00
33454;BME280;39400;49.744;7.012;2023-05-10T10:03:55;95624.78;;;11.59;100.00
33454;BME280;39400;49.744;7.012;2023-05-10T10:06:21;95621.19;;;11.65;100.00
33454;BME280;39400;49.744;7.012;2023-05-10T10:08:46;95621.78;;;11.87;100.00
33454;BME280;39400;49.744;7.012;2023-05-10T10:11:11;95616.09;;;12.02;100.00
33454;BME280;39400;49.744;7.012;2023-05-10T10:13:37;95618.22;;;11.90;100.00
33454;BME280;39400;49.744;7.012;2023-05-10T10:16:02;95612.66;;;11.94;100.00
33454;BME280;39400;49.744;7.012;2023-05-10T10:18:28;95617.81;;;12.26;100.00
33454;BME280;39400;49.744;7.012;2023-05-10T10:20:55;95605.09;;;12.32;100.00
33454;BME280;39400;49.744;7.012;2023-05-10T10:23:21;95609.88;;;12.28;100.00
33454;BME280;39400;49.744;7.012;2023-05-10T10:25:46;95614.97;;;12.33;100.00
33454;BME280;39400;49.744;7.012;2023-05-10T10:34:01;95622.75;;;12.69;100.00
33454;BME280;39400;49.744;7.012;2023-05-10T10:36:28;95616.50;;;12.65;100.00
33454;BME280;39400;49.744;7.012;2023-05-10T10:38:55;95613.03;;;12.61;100.00
33454;BME280;39400;49.744;7.012;2023-05-10T10:41:50;95623.59;;;12.35;100.00
33454;BME280;39400;49.744;7.012;2023-05-10T10:47:07;95617.34;;;12.31;100.00
33454;BME280;39400;49.744;7.012;2023-05-10T10:49:37;95619.28;;;12.34;100.00
33454;BME280;39400;49.744;7.012;2023-05-10T10:57:24;95614.38;;;12.15;100.00
33454;BME280;39400;49.744;7.012;2023-05-10T10:59:49;95621.56;;;12.09;100.00
33454;BME280;39400;49.744;7.012;2023-05-10T11:04:59;95616.69;;;12.20;100.00
33454;BME280;39400;49.744;7.012;2023-05-10T11:07:24;95618.06;;;12.35;100.00
33454;BME280;39400;49.744;7.012;2023-05-10T11:09:50;95627.06;;;12.40;100.00
33454;BME280;39400;49.744;7.012;2023-05-10T11:12:15;95616.31;;;12.49;100.00
33454;BME280;39400;49.744;7.012;2023-05-10T11:14:40;95623.84;;;12.75;100.00
33454;BME280;39400;49.744;7.012;2023-05-10T11:17:26;95626.66;;;12.99;100.00
33454;BME280;39400;49.744;7.012;2023-05-10T11:20:08;95617.22;;;13.23;100.00
33454;BME280;39400;49.744;7.012;2023-05-10T11:22:49;95616.19;;;13.41;100.00
33454;BME280;39400;49.744;7.012;2023-05-10T11:25:15;95616.53;;;13.66;100.00
33454;BME280;39400;49.744;7.012;2023-05-10T11:27:41;95614.84;;;13.72;100.00
33454;BME280;39400;49.744;7.012;2023-05-10T11:30:07;95618.19;;;13.84;100.00
33454;BME280;39400;49.744;7.012;2023-05-10T11:32:37;95619.09;;;13.77;100.00
33454;BME280;39400;49.744;7.012;2023-05-10T11:35:09;95623.19;;;13.69;100.00
33454;BME280;39400;49.744;7.012;2023-05-10T11:37:36;95630.34;;;13.66;100.00
33454;BME280;39400;49.744;7.012;2023-05-10T11:40:01;95632.13;;;13.53;100.00
33454;BME280;39400;49.744;7.012;2023-05-10T11:42:27;95625.41;;;13.30;100.00
33454;BME280;39400;49.744;7.012;2023-05-10T11:44:53;95625.88;;;13.25;100.00
33454;BME280;39400;49.744;7.012;2023-05-10T11:47:18;95626.25;;;13.27;100.00
33454;BME280;39400;49.744;7.012;2023-05-10T11:49:45;95629.00;;;13.74;100.00
33454;BME280;39400;49.744;7.012;2023-05-10T11:52:10;95619.25;;;14.30;100.00
33454;BME280;39400;49.744;7.012;2023-05-10T11:54:35;95607.13;;;14.23;100.00
33454;BME280;39400;49.744;7.012;2023-05-10T11:57:00;95611.25;;;14.35;100.00
33454;BME280;39400;49.744;7.012;2023-05-10T11:59:26;95623.75;;;14.63;100.00
33454;BME280;39400;49.744;7.012;2023-05-10T12:01:51;95622.09;;;14.66;100.00
33454;BME280;39400;49.744;7.012;2023-05-10T12:04:17;95627.88;;;14.55;100.00
33454;BME280;39400;49.744;7.012;2023-05-10T12:06:42;95630.75;;;14.28;99.49
33454;BME280;39400;49.744;7.012;2023-05-10T12:09:08;95630.41;;;14.46;97.93
33454;BME280;39400;49.744;7.012;2023-05-10T12:11:37;95630.47;;;14.42;98.53
33454;BME280;39400;49.744;7.012;2023-05-10T12:14:04;95634.06;;;14.19;96.21
33454;BME280;39400;49.744;7.012;2023-05-10T12:16:29;95635.13;;;14.06;98.05
33454;BME280;39400;49.744;7.012;2023-05-10T12:18:59;95644.72;;;14.01;97.25
33454;BME280;39400;49.744;7.012;2023-05-10T12:21:25;95653.72;;;13.82;98.11
33454;BME280;39400;49.744;7.012;2023-05-10T12:23:53;95638.44;;;13.77;96.02
33454;BME280;39400;49.744;7.012;2023-05-10T12:26:22;95640.88;;;13.71;96.24
33454;BME280;39400;49.744;7.012;2023-05-10T12:28:48;95651.13;;;13.51;97.95
33454;BME280;39400;49.744;7.012;2023-05-10T12:31:13;95643.63;;;13.51;99.85
33454;BME280;39400;49.744;7.012;2023-05-10T12:33:40;95645.75;;;13.64;100.00
33454;BME280;39400;49.744;7.012;2023-05-10T12:36:06;95657.38;;;13.98;98.93
33454;BME280;39400;49.744;7.012;2023-05-10T12:38:36;95653.59;;;14.32;98.85
33454;BME280;39400;49.744;7.012;2023-05-10T12:41:06;95649.75;;;14.46;96.58
33454;BME280;39400;49.744;7.012;2023-05-10T12:43:33;95648.44;;;14.54;94.19
33454;BME280;39400;49.744;7.012;2023-05-10T12:46:13;95643.16;;;14.80;91.56
33454;BME280;39400;49.744;7.012;2023-05-10T12:48:40;95647.41;;;14.64;92.52
33454;BME280;39400;49.744;7.012;2023-05-10T12:51:06;95649.84;;;14.98;96.70
33454;BME280;39400;49.744;7.012;2023-05-10T12:53:31;95651.28;;;15.39;93.38
33454;BME280;39400;49.744;7.012;2023-05-10T12:55:57;95650.84;;;15.57;84.36
33454;BME280;39400;49.744;7.012;2023-05-10T12:58:22;95650.00;;;15.28;86.38
33454;BME280;39400;49.744;7.012;2023-05-10T13:00:48;95650.47;;;15.06;87.50
33454;BME280;39400;49.744;7.012;2023-05-10T13:03:13;95658.28;;;15.11;88.08
33454;BME280;39400;49.744;7.012;2023-05-10T13:05:38;95656.63;;;14.78;87.34
33454;BME280;39400;49.744;7.012;2023-05-10T13:08:04;95657.50;;;14.55;87.98
33454;BME280;39400;49.744;7.012;2023-05-10T13:10:30;95660.28;;;14.55;87.26
33454;BME280;39400;49.744;7.012;2023-05-10T13:12:56;95661.25;;;14.64;87.70
33454;BME280;39400;49.744;7.012;2023-05-10T13:15:22;95656.09;;;14.66;88.42
33454;BME280;39400;49.744;7.012;2023-05-10T13:17:47;95655.09;;;14.57;88.94
33454;BME280;39400;49.744;7.012;2023-05-10T13:20:12;95654.31;;;14.56;91.91